Tie Plant, MS (38960)

8:50 AM CDT on September 19, 2014 (GMT -0500)
Greenwood-Leflore | Change Station
CLOSE
Current Station
Airport
Location: Greenwood,
Elevation: 154 ft
Nearby Weather Stations

Elev 154 ft 33.49 °N, 90.08 °W | Updated 57 minutes ago

Mostly Cloudy
Mostly Cloudy
68 °F
Feels Like 68 °F
N
4
Wind Variable Wind from East

Today
High -- | Low -- °F
--% Chance of Precip.
Yesterday
High -- | Low -- °F
Precip. -- in
6:45 AM 7:00 PM
Waning Crescent, 19% visible
Pressure 30.00 in
Visibility 6.0 miles
Clouds Overcast 300 ft
Dew Point 67 °F
Humidity 96%
Rainfall 0.00 in
Snow Depth Not available.
UV 0 out of 12
Pollen 8.00 out of 12
Air Quality Not available.
Flu Activity Not available.
METAR KGWO 191253Z AUTO 08003KT 6SM BR OVC003 20/19 A3000 RMK AO2 SLP158 T02000194 TSNO

More Conditions Fewer Conditions

Pressure 30.00 in
Visibility 6.0 miles
Clouds Overcast 300 ft
Dew Point 67 °F
Humidity 96%
Rainfall 0.00 in
Snow Depth Not available.
UV 0 out of 12
Pollen 8.00 out of 12
Air Quality Not available.
Flu Activity Not available.
METAR KGWO 191253Z AUTO 08003KT 6SM BR OVC003 20/19 A3000 RMK AO2 SLP158 T02000194 TSNO

More Conditions Fewer Conditions

10-Day Weather Forecast

Almanac

Astronomy

Sep. 19, 2014 Rise Set
Actual Time 6:45 AM CDT 7:00 PM CDT
Civil Twilight 6:20 AM CDT 7:24 PM CDT
Nautical Twilight 5:51 AM CDT 7:54 PM CDT
Astronomical Twilight 5:21 AM CDT 8:23 PM CDT
Moon 2:40 AM CDT 4:20 PM CDT
Length of Visible Light 13h 04m
Length of Day
12h 14m
Tomorrow will be 2m 4s shorter.
Waning Crescent, 19% of the Moon is Illuminated
Today
Waning Crescent
Sep 24
New
Oct 1
First Quarter
Oct 8
Full
Oct 15
Last Quarter

Today's Extremes

State Highs State Lows

Community

WunderPhotos

Upload Photos

1,754,608 photos uploaded!

WunderBlogs® & News

Nearby

Snow Depth

Station Depth Elevation
No new snow has been reported.

Earthquake Activity

City Distance Mag. Time & Date
No recent earthquake activity has been reported nearby.
Minimum magnitude displayed is 2.5.

Coastal Water Temperatures

Place Temperature
No Stations Reporting

Nearby Weather Stations